This is the latest recevied weather packets stored in our database for station/object NM5PB-13. If no packets are shown the sender has not sent any weather packets the latest 10 day(s).
| Time | Temp. | Humidity | Pressure | Rain* | Wind** | Luminosity | Snow |
|---|---|---|---|---|---|---|---|
| 1787668576 | 21.67° C | 73% | 1019 hPa | 0 mm | - | - | - |
| 1787667674 | 21.11° C | 75% | 1019 hPa | 0 mm | - | - | - |
| 1787666771 | 20.56° C | 78% | 1019 hPa | 0 mm | - | - | - |
| 1787665857 | 19.44° C | 81% | 1020 hPa | 0 mm | - | - | - |
| 1787664943 | 18.89° C | 84% | 1019 hPa | 0 mm | - | - | - |
| 1787664037 | 17.22° C | 91% | 1019 hPa | 0 mm | - | - | - |
| 1787663128 | 16.11° C | 96% | 1019 hPa | 0 mm | - | - | - |
| 1787662215 | 15° C | 97% | 1019 hPa | 0 mm | - | - | - |
| 1787661312 | 13.89° C | 97% | 1019 hPa | 0 mm | - | - | - |
| 1787660397 | 13.89° C | 96% | 1019 hPa | 0 mm | - | - | - |
| 1787659485 | 13.33° C | 97% | 1019 hPa | 0 mm | - | - | - |
| 1787658575 | 12.78° C | 96% | 1019 hPa | 0 mm | - | - | - |
| 1787657670 | 13.33° C | 97% | 1019 hPa | 0 mm | - | - | - |
| 1787656754 | 13.33° C | 96% | 1019 hPa | 0 mm | - | - | - |
| 1787655837 | 13.33° C | 96% | 1019 hPa | 0 mm | - | - | - |
| 1787654926 | 13.33° C | 96% | 1019 hPa | 0 mm | - | - | - |
| 1787654015 | 13.33° C | 96% | 1019 hPa | 0 mm | - | - | - |
| 1787653111 | 13.33° C | 96% | 1019 hPa | 0 mm | - | - | - |
| 1787652195 | 13.33° C | 96% | 1019 hPa | 0 mm | - | - | - |
| 1787651277 | 13.33° C | 96% | 1019 hPa | 0 mm | - | - | - |
| 1787650367 | 13.33° C | 96% | 1018 hPa | 0 mm | - | - | - |
| 1787649455 | 13.33° C | 96% | 1018 hPa | 0 mm | - | - | - |
| 1787648553 | 13.89° C | 96% | 1019 hPa | 0 mm | - | - | - |
| 1787647636 | 13.89° C | 96% | 1019 hPa | 0 mm | - | - | - |
| 1787646723 | 13.89° C | 96% | 1019 hPa | 0 mm | - | - | - |
* Rain latest hour (hover to see other rain measurements)
** Current wind speed in m/s (hover to see current wind gust speed)